Meteorología y climatología de Navarra
Datos de la estación - Meteo Navarra

Estación de Yesa GN

Altitud 487 m.


Datos desde el 11/01/2019 hasta el 12/01/2019 en horario solar
Los datos son PROVISIONALES

Anterior Página 1 de 1 Siguiente Descargar: Formato para Excel 2000 o superior   Formato csv   Formato para OpenOffice Calc
Fecha Temperatura Humedad relativa Radiación global Insolación Precipitación Velocidad viento 10 m Velocidad viento 10 m Dirección viento 10 m
ºC % W/m² s l/m² m/s km/h º
11/01/2019 0:00 0.4 62 0.0 0 0.0 5.0 18.0 306
11/01/2019 0:10 0.3 63 0.0 0 0.0 5.6 20.3 302
11/01/2019 0:20 0.2 64 0.0 0 0.0 6.2 22.1 303
11/01/2019 0:30 0.2 64 0.0 0 0.0 5.7 20.7 305
11/01/2019 0:40 0.3 64 0.0 0 0.0 5.7 20.4 309
11/01/2019 0:50 0.4 63 0.0 0 0.0 4.9 17.7 302
11/01/2019 1:00 0.4 64 0.0 0 0.0 5.2 18.5 308
11/01/2019 1:10 0.4 64 0.0 0 0.0 6.0 21.5 306
11/01/2019 1:20 0.4 65 0.0 0 0.0 6.0 21.6 310
11/01/2019 1:30 0.5 65 0.0 0 0.0 6.9 24.7 313
11/01/2019 1:40 0.5 65 0.0 0 0.0 7.1 25.4 310
11/01/2019 1:50 0.5 65 0.0 0 0.0 7.7 27.7 314
11/01/2019 2:00 0.6 64 0.0 0 0.0 7.8 28.0 319
11/01/2019 2:10 0.6 64 0.0 0 0.0 6.8 24.3 330
11/01/2019 2:20 0.6 63 0.0 0 0.0 6.5 23.3 333
11/01/2019 2:30 0.5 63 0.0 0 0.0 4.7 17.1 347
11/01/2019 2:40 0.6 63 0.0 0 0.0 5.9 21.1 334
11/01/2019 2:50 0.6 63 0.0 0 0.0 5.6 20.3 340
11/01/2019 3:00 0.6 63 0.0 0 0.0 6.3 22.5 340
11/01/2019 3:10 0.5 63 0.0 0 0.0 5.2 18.7 338
11/01/2019 3:20 0.6 63 0.0 0 0.0 6.0 21.7 339
11/01/2019 3:30 0.5 64 0.0 0 0.0 5.0 18.1 347
11/01/2019 3:40 0.3 64 0.0 0 0.0 4.7 17.0 340
11/01/2019 3:50 0.4 64 0.0 0 0.0 5.6 20.0 331
11/01/2019 4:00 0.5 64 0.0 0 0.0 6.0 21.6 325
11/01/2019 4:10 0.4 63 0.0 0 0.0 4.8 17.3 336
11/01/2019 4:20 0.4 63 0.0 0 0.0 5.8 20.7 331
11/01/2019 4:30 0.5 62 0.0 0 0.0 5.9 21.2 342
11/01/2019 4:40 0.5 62 0.0 0 0.0 5.3 19.0 339
11/01/2019 4:50 0.4 62 0.0 0 0.0 5.6 20.1 337
11/01/2019 5:00 0.5 60 0.0 0 0.0 4.9 17.7 354
11/01/2019 5:10 0.3 60 0.0 0 0.0 4.2 15.1 343
11/01/2019 5:20 0.3 59 0.0 0 0.0 5.2 18.5 340
11/01/2019 5:30 0.3 57 0.0 0 0.0 5.4 19.5 337
11/01/2019 5:40 0.3 56 0.0 0 0.0 6.0 21.6 330
11/01/2019 5:50 0.2 56 0.0 0 0.0 6.2 22.2 329
11/01/2019 6:00 0.1 55 0.0 0 0.0 6.8 24.6 336
11/01/2019 6:10 0.0 56 0.0 0 0.0 5.3 19.2 335
11/01/2019 6:20 0.1 54 0.0 0 0.0 6.0 21.7 333
11/01/2019 6:30 0.0 55 0.0 0 0.0 5.6 20.1 332
11/01/2019 6:40 -0.0 55 0.0 0 0.0 5.7 20.4 334
11/01/2019 6:50 -0.1 55 0.0 0 0.0 5.2 18.5 343
11/01/2019 7:00 -0.0 54 0.0 0 0.0 4.7 17.1 346
11/01/2019 7:10 0.2 50 0.0 0 0.0 4.8 17.1 360
11/01/2019 7:20 0.6 47 0.0 0 0.0 5.1 18.2 357
11/01/2019 7:30 0.9 45 0.0 0 0.0 5.1 18.2 5
11/01/2019 7:40 0.9 46 0.0 0 0.0 3.8 13.8 11
11/01/2019 7:50 1.2 43 0.0 0 0.0 4.4 15.7 14
11/01/2019 8:00 1.5 42 0.0 0 0.0 6.9 24.8 6
11/01/2019 8:10 1.6 41 9.7 0 0.0 4.3 15.3 13
11/01/2019 8:20 1.8 41 24.3 36 0.0 5.4 19.5 13
11/01/2019 8:30 2.0 40 100.6 600 0.0 6.0 21.6 8
11/01/2019 8:40 2.4 39 125.5 600 0.0 4.2 15.2 25
11/01/2019 8:50 2.7 39 150.2 600 0.0 5.5 19.9 354
11/01/2019 9:00 2.8 40 174.7 600 0.0 5.8 20.9 22
11/01/2019 9:10 3.1 38 197.2 600 0.0 5.9 21.3 12
11/01/2019 9:20 3.2 37 223.8 600 0.0 5.3 18.9 19
11/01/2019 9:30 3.4 35 245.4 600 0.0 4.5 16.3 349
11/01/2019 9:40 3.8 35 268.5 600 0.0 2.9 10.5 8
11/01/2019 9:50 4.0 35 290.0 600 0.0 4.2 15.2 345
11/01/2019 10:00 4.2 34 310.6 600 0.0 3.8 13.8 29
11/01/2019 10:10 4.6 34 329.8 600 0.0 3.8 13.5 65
11/01/2019 10:20 4.9 35 348.0 600 0.0 3.4 12.1 75
11/01/2019 10:30 4.9 37 364.9 600 0.0 3.1 11.3 29
11/01/2019 10:40 4.8 40 382.8 600 0.0 6.0 21.6 1
11/01/2019 10:50 5.0 41 397.4 600 0.0 3.9 14.2 7
11/01/2019 11:00 5.1 42 409.9 600 0.0 4.2 15.0 2
11/01/2019 11:10 5.2 42 424.5 600 0.0 5.5 19.7 29
11/01/2019 11:20 5.5 43 433.9 600 0.0 4.8 17.2 17
11/01/2019 11:30 5.3 43 440.6 600 0.0 5.3 19.2 50
11/01/2019 11:40 5.2 43 445.3 600 0.0 6.8 24.6 74
11/01/2019 11:50 5.4 43 449.4 600 0.0 6.0 21.7 56
11/01/2019 12:00 5.3 43 450.2 596 0.0 5.1 18.5 49
11/01/2019 12:10 5.6 43 456.0 600 0.0 7.6 27.5 22
11/01/2019 12:20 5.5 43 468.4 600 0.0 5.1 18.2 49
11/01/2019 12:30 5.6 42 463.5 600 0.0 5.1 18.4 17
11/01/2019 12:40 5.6 43 398.9 476 0.0 3.8 13.6 314
11/01/2019 12:50 5.8 43 418.7 540 0.0 3.3 11.7 130
11/01/2019 13:00 5.6 42 378.3 492 0.0 4.7 16.7 297
11/01/2019 13:10 5.8 43 424.8 592 0.0 3.7 13.1 5
11/01/2019 13:20 6.2 42 345.6 456 0.0 4.9 17.5 336
11/01/2019 13:30 5.8 42 321.1 438 0.0 4.6 16.6 341
11/01/2019 13:40 5.8 43 366.6 554 0.0 4.0 14.4 351
11/01/2019 13:50 6.3 43 336.4 524 0.0 2.6 9.5 251
11/01/2019 14:00 6.2 43 365.2 584 0.0 3.2 11.6 313
11/01/2019 14:10 6.1 43 359.9 600 0.0 4.3 15.5 323
11/01/2019 14:20 6.2 44 156.6 220 0.0 3.0 10.7 263
11/01/2019 14:30 5.6 45 69.8 0 0.0 3.1 11.3 285
11/01/2019 14:40 5.5 45 45.7 0 0.0 3.5 12.5 19
11/01/2019 14:50 5.4 46 39.8 0 0.0 3.9 13.9 326
11/01/2019 15:00 5.4 46 41.0 0 0.0 2.7 9.7 338
11/01/2019 15:10 5.2 46 48.3 0 0.0 5.5 19.9 5
11/01/2019 15:20 5.5 46 176.3 474 0.0 5.2 18.6 9
11/01/2019 15:30 5.7 45 103.8 220 0.0 3.5 12.7 5
11/01/2019 15:40 5.6 46 56.2 24 0.0 5.2 18.7 5
11/01/2019 15:50 5.6 47 100.9 372 0.0 5.9 21.2 24
11/01/2019 16:00 5.4 47 33.9 0 0.0 7.6 27.3 0
11/01/2019 16:10 5.3 47 21.6 0 0.0 6.4 23.0 4
11/01/2019 16:20 5.2 48 17.2 0 0.0 5.0 18.0 12
11/01/2019 16:30 5.0 48 4.0 0 0.0 5.8 20.7 341
11/01/2019 16:40 4.9 49 0.0 0 0.0 3.8 13.5 23
11/01/2019 16:50 4.7 49 0.0 0 0.0 3.9 14.0 16
11/01/2019 17:00 4.7 50 0.0 0 0.0 4.6 16.5 359
11/01/2019 17:10 4.6 49 0.0 0 0.0 4.9 17.6 13
11/01/2019 17:20 4.6 49 0.0 0 0.0 5.5 19.6 8
11/01/2019 17:30 4.6 49 0.0 0 0.0 5.4 19.6 359
11/01/2019 17:40 4.7 49 0.0 0 0.0 5.3 19.1 355
11/01/2019 17:50 4.7 49 0.0 0 0.0 5.1 18.3 352
11/01/2019 18:00 4.7 49 0.0 0 0.0 6.0 21.6 13
11/01/2019 18:10 4.7 49 0.0 0 0.0 5.3 18.9 8
11/01/2019 18:20 4.7 49 0.0 0 0.0 4.8 17.1 359
11/01/2019 18:30 4.5 49 0.0 0 0.0 3.3 11.9 332
11/01/2019 18:40 4.6 50 0.0 0 0.0 2.4 8.6 350
11/01/2019 18:50 4.3 50 0.0 0 0.0 3.9 13.9 351
11/01/2019 19:00 4.2 51 0.0 0 0.0 3.1 11.1 321
11/01/2019 19:10 4.2 52 0.0 0 0.0 3.1 11.1 291
11/01/2019 19:20 3.5 55 0.0 0 0.0 3.1 11.0 268
11/01/2019 19:30 3.3 57 0.0 0 0.0 2.9 10.3 248
11/01/2019 19:40 3.0 57 0.0 0 0.0 2.9 10.6 255
11/01/2019 19:50 3.1 57 0.0 0 0.0 2.3 8.1 240
11/01/2019 20:00 2.7 59 0.0 0 0.0 1.1 4.0 260
11/01/2019 20:10 2.8 60 0.0 0 0.0 2.6 9.3 245
11/01/2019 20:20 2.8 60 0.0 0 0.0 3.2 11.4 254
11/01/2019 20:30 2.6 60 0.0 0 0.0 3.3 12.0 261
11/01/2019 20:40 2.5 60 0.0 0 0.0 4.8 17.1 265
11/01/2019 20:50 2.7 60 0.0 0 0.0 4.5 16.1 265
11/01/2019 21:00 2.7 59 0.0 0 0.0 4.2 15.2 263
11/01/2019 21:10 2.6 59 0.0 0 0.0 4.0 14.4 274
11/01/2019 21:20 2.7 59 0.0 0 0.0 4.3 15.5 273
11/01/2019 21:30 2.5 60 0.0 0 0.0 3.2 11.6 268
11/01/2019 21:40 2.4 60 0.0 0 0.0 3.3 11.8 270
11/01/2019 21:50 2.5 60 0.0 0 0.0 4.1 14.9 262
11/01/2019 22:00 2.5 60 0.0 0 0.0 3.6 12.8 270
11/01/2019 22:10 2.2 60 0.0 0 0.0 4.3 15.5 279
11/01/2019 22:20 2.4 61 0.0 0 0.0 3.7 13.2 279
11/01/2019 22:30 2.3 61 0.0 0 0.0 3.4 12.2 266
11/01/2019 22:40 2.1 61 0.0 0 0.0 2.7 9.7 271
11/01/2019 22:50 2.1 61 0.0 0 0.0 2.4 8.8 269
11/01/2019 23:00 2.1 62 0.0 0 0.0 2.3 8.2 269
11/01/2019 23:10 2.1 62 0.0 0 0.0 1.9 6.8 253
11/01/2019 23:20 2.1 62 0.0 0 0.0 2.1 7.4 259
11/01/2019 23:30 1.9 62 0.0 0 0.0 1.7 6.2 260
11/01/2019 23:40 2.1 62 0.0 0 0.0 2.5 9.1 264
11/01/2019 23:50 2.3 61 0.0 0 0.0 2.3 8.4 241
Anterior Página 1 de 1 Siguiente

NOTA: Tipo de datos según el color:
   - Valores diarios o 10 minutos correctos
   - Valores diarios calculados a partir de un número de datos 10 minutos menor que 144 y mayor que 120, o de un número de datos semihorarios menor que 48 y mayor que 40 (caso de las estaciones de Riegos de Navarra y del MARM)
   - Valores diez minutos estimados


Contacto        Enlaces        Aviso legal